Strona główna
METAR-TAF:

METAR-TAF

Lotnisko :

Port lotniczy Le Havre-Octeville

Hawr, Francja

Szerokość geograficzna: 49-31N, Długość geograficzna: 000-04E, wysokość: 100 m

Aktualna obserwacja pogody

Raport powstał 22 minut temu, godzina 22:30 UTC
Wiatr 10 kt od południowy wschód
Temperatura 12°C
Wilgotność 50%
Ciśnienie 1018 hPa
Widzialność 10 km lub więcej
Brak chmur poniżej 1500 m i brak chmur cumulonimbus

METAR: LFOH 042230Z AUTO 13010KT CAVOK 12/02 Q1018

czas: 00:52 (22:52 UTC)


TAF: brakujący

Obserwacja i prognoza pogody dla ponad 4000 lotnisk (raport METAR i TAF).

Dostępne stacje oznaczono żółtymi i czerwonymi punktami na mapie.

Najedź kursorem aby zobaczyć nazwę stacji.

Kliknij aby zobaczyć obserwacje i prognozy pogody.

Aby zmienić mapę: kliknij na zielony przycisk z czarnym krzyżykiem, aby powiększyć; na zielony przycisk z myślnikiem, aby pomniejszyć; na zielone strzałki, aby przejść do map sąsiednich.


METAR-TAF: